createdAt,value
2016-05-08T00:00:16.116Z,0
2016-05-08T00:01:15.994Z,0
2016-05-08T00:02:16.168Z,0
2016-05-08T00:03:16.202Z,0
2016-05-08T00:04:16.065Z,0
2016-05-08T00:05:16.099Z,0
2016-05-08T00:06:16.288Z,0
2016-05-08T00:07:16.323Z,0
2016-05-08T00:08:16.326Z,0
2016-05-08T00:09:16.359Z,0
2016-05-08T00:10:16.237Z,0
2016-05-08T00:11:16.240Z,0
2016-05-08T00:12:16.133Z,0
2016-05-08T00:13:16.448Z,0
2016-05-08T00:14:16.482Z,0
2016-05-08T00:15:16.500Z,0
2016-05-08T00:16:16.534Z,0
2016-05-08T00:17:16.553Z,0
2016-05-08T00:18:16.587Z,0
2016-05-08T00:19:16.448Z,0
2016-05-08T00:20:16.623Z,0
2016-05-08T00:21:16.657Z,0
2016-05-08T00:22:16.691Z,0
2016-05-08T00:23:16.726Z,0
2016-05-08T00:24:17.063Z,0
2016-05-08T00:25:16.769Z,0
2016-05-08T00:26:16.802Z,0
2016-05-08T00:27:17.040Z,0
2016-05-08T00:28:16.682Z,0
2016-05-08T00:29:16.858Z,0
2016-05-08T00:30:16.892Z,0
2016-05-08T00:31:16.754Z,0
2016-05-08T00:32:16.632Z,0
2016-05-08T00:33:16.962Z,0
2016-05-08T00:34:16.995Z,0
2016-05-08T00:35:17.014Z,0
2016-05-08T00:36:17.033Z,0
2016-05-08T00:37:17.067Z,0
2016-05-08T00:38:16.929Z,0
2016-05-08T00:39:17.119Z,0
2016-05-08T00:40:17.153Z,0
2016-05-08T00:41:17.171Z,0
2016-05-08T00:42:17.236Z,0
2016-05-08T00:43:17.052Z,0
2016-05-08T00:44:17.226Z,0
2016-05-08T00:45:17.260Z,0
2016-05-08T00:46:17.122Z,0
2016-05-08T00:47:17.313Z,0
2016-05-08T00:48:17.191Z,0
2016-05-08T00:49:17.193Z,0
2016-05-08T00:50:17.383Z,0
2016-05-08T00:51:17.401Z,0
2016-05-08T00:52:17.435Z,0
2016-05-08T00:53:17.453Z,0
2016-05-08T00:54:17.488Z,0
2016-05-08T00:55:17.193Z,0
2016-05-08T00:56:17.540Z,0
2016-05-08T00:57:17.448Z,0
2016-05-08T00:58:17.435Z,0
2016-05-08T00:59:17.609Z,0
2016-05-08T01:00:17.488Z,0
2016-05-08T01:01:17.679Z,0
2016-05-08T01:02:17.681Z,0
2016-05-08T01:03:17.714Z,0
2016-05-08T01:04:17.734Z,0
2016-05-08T01:05:17.767Z,0
2016-05-08T01:06:17.770Z,0
2016-05-08T01:07:17.820Z,0
2016-05-08T01:08:17.681Z,0
2016-05-08T01:09:17.886Z,0
2016-05-08T01:10:17.592Z,0
2016-05-08T01:11:17.908Z,0
2016-05-08T01:12:17.817Z,0
2016-05-08T01:13:17.804Z,0
2016-05-08T01:14:17.978Z,0
2016-05-08T01:15:17.856Z,0
2016-05-08T01:16:17.891Z,0
2016-05-08T01:17:18.050Z,0
2016-05-08T01:18:18.099Z,0
2016-05-08T01:19:18.102Z,0
2016-05-08T01:20:18.135Z,0
2016-05-08T01:21:18.013Z,0
2016-05-08T01:22:18.172Z,0
2016-05-08T01:23:18.050Z,0
2016-05-08T01:24:18.240Z,0
2016-05-08T01:25:18.259Z,0
2016-05-08T01:26:18.293Z,0
2016-05-08T01:27:18.311Z,0
2016-05-08T01:28:18.313Z,0
2016-05-08T01:29:18.192Z,0
2016-05-08T01:30:18.382Z,0
2016-05-08T01:31:18.400Z,0
2016-05-08T01:32:18.418Z,0
2016-05-08T01:33:18.297Z,0
2016-05-08T01:34:18.471Z,0
2016-05-08T01:35:18.505Z,0
2016-05-08T01:36:18.366Z,0
2016-05-08T01:37:18.557Z,0
2016-05-08T01:38:18.434Z,0
2016-05-08T01:39:18.594Z,0
2016-05-08T01:40:18.627Z,0
2016-05-08T01:41:18.662Z,0
2016-05-08T01:42:18.523Z,0
2016-05-08T01:43:18.714Z,0
2016-05-08T01:44:18.717Z,0
2016-05-08T01:45:18.751Z,0
2016-05-08T01:46:18.768Z,0
2016-05-08T01:47:18.803Z,0
2016-05-08T01:48:18.821Z,0
2016-05-08T01:49:18.683Z,0
2016-05-08T01:50:18.873Z,0
2016-05-08T01:51:18.892Z,0
2016-05-08T01:52:18.909Z,0
2016-05-08T01:53:18.787Z,0
2016-05-08T01:54:18.806Z,0
2016-05-08T01:55:18.825Z,0
2016-05-08T01:56:19.014Z,0
2016-05-08T01:57:19.048Z,0
2016-05-08T01:58:18.613Z,0
2016-05-08T01:59:18.928Z,0
2016-05-08T02:00:19.119Z,0
2016-05-08T02:01:19.013Z,0
2016-05-08T02:02:19.156Z,0
2016-05-08T02:03:18.877Z,0
2016-05-08T02:04:19.066Z,0
2016-05-08T02:05:19.132Z,0
2016-05-08T02:06:19.244Z,0
2016-05-08T02:07:19.216Z,0
2016-05-08T02:08:19.313Z,0
2016-05-08T02:09:19.330Z,0
2016-05-08T02:10:19.192Z,0
2016-05-08T02:11:19.415Z,0
2016-05-08T02:12:20.339Z,0
2016-05-08T02:13:19.263Z,0
2016-05-08T02:14:19.298Z,0
2016-05-08T02:15:19.487Z,0
2016-05-08T02:16:19.506Z,0
2016-05-08T02:17:19.508Z,0
2016-05-08T02:18:19.559Z,0
2016-05-08T02:19:19.576Z,0
2016-05-08T02:20:19.439Z,0
2016-05-08T02:21:19.472Z,0
2016-05-08T02:22:19.662Z,0
2016-05-08T02:23:19.665Z,0
2016-05-08T02:24:19.700Z,0
2016-05-08T02:25:19.561Z,0
2016-05-08T02:26:19.751Z,0
2016-05-08T02:27:19.785Z,0
2016-05-08T02:28:19.788Z,0
2016-05-08T02:29:19.822Z,0
2016-05-08T02:30:19.856Z,0
2016-05-08T02:31:19.874Z,0
2016-05-08T02:32:19.892Z,0
2016-05-08T02:33:19.911Z,0
2016-05-08T02:34:19.929Z,0
2016-05-08T02:35:19.947Z,0
2016-05-08T02:36:19.982Z,0
2016-05-08T02:37:19.999Z,0
2016-05-08T02:38:20.065Z,0
2016-05-08T02:39:19.911Z,0
2016-05-08T02:40:20.070Z,0
2016-05-08T02:41:20.104Z,0
2016-05-08T02:42:20.171Z,0
2016-05-08T02:43:20.064Z,0
2016-05-08T02:44:20.301Z,0
2016-05-08T02:45:20.212Z,0
2016-05-08T02:46:20.543Z,0
2016-05-08T02:47:20.511Z,0
2016-05-08T02:48:20.391Z,0
2016-05-08T02:49:20.426Z,0
2016-05-08T02:50:20.617Z,0
2016-05-08T02:51:20.512Z,0
2016-05-08T02:52:20.728Z,0
2016-05-08T02:53:20.565Z,0
2016-05-08T02:54:20.778Z,0
2016-05-08T02:55:20.645Z,0
2016-05-08T02:56:20.809Z,0
2016-05-08T02:57:20.754Z,0
2016-05-08T02:58:20.712Z,0
2016-05-08T02:59:20.889Z,0
2016-05-08T03:00:20.925Z,0
2016-05-08T03:01:20.790Z,0
2016-05-08T03:02:20.965Z,0
2016-05-08T03:03:20.843Z,0
2016-05-08T03:04:21.018Z,0
2016-05-08T03:05:20.882Z,0
2016-05-08T03:06:20.917Z,0
2016-05-08T03:07:21.092Z,0
2016-05-08T03:08:21.142Z,0
2016-05-08T03:09:20.988Z,0
2016-05-08T03:10:21.007Z,0
2016-05-08T03:11:21.198Z,0
2016-05-08T03:12:21.779Z,0
2016-05-08T03:13:21.235Z,0
2016-05-08T03:14:21.252Z,0
2016-05-08T03:15:21.271Z,0
2016-05-08T03:16:21.148Z,0
2016-05-08T03:17:21.340Z,0
2016-05-08T03:18:21.357Z,0
2016-05-08T03:19:21.220Z,0
2016-05-08T03:20:21.237Z,0
2016-05-08T03:21:21.116Z,0
2016-05-08T03:22:21.462Z,0
2016-05-08T03:23:21.481Z,0
2016-05-08T03:24:21.342Z,0
2016-05-08T03:25:21.204Z,0
2016-05-08T03:26:21.550Z,0
2016-05-08T03:27:21.679Z,0
2016-05-08T03:28:21.587Z,0
2016-05-08T03:29:21.606Z,0
2016-05-08T03:30:21.655Z,0
2016-05-08T03:31:21.659Z,0
2016-05-08T03:32:21.519Z,0
2016-05-08T03:33:21.554Z,0
2016-05-08T03:34:21.744Z,0
2016-05-08T03:35:21.746Z,0
2016-05-08T03:36:21.625Z,0
2016-05-08T03:37:21.814Z,0
2016-05-08T03:38:21.708Z,0
2016-05-08T03:39:21.835Z,0
2016-05-08T03:40:21.869Z,0
2016-05-08T03:41:21.904Z,0
2016-05-08T03:42:22.296Z,0
2016-05-08T03:43:21.628Z,0
2016-05-08T03:44:21.974Z,0
2016-05-08T03:45:21.993Z,0
2016-05-08T03:46:21.854Z,0
2016-05-08T03:47:21.732Z,0
2016-05-08T03:48:22.063Z,0
2016-05-08T03:49:22.082Z,0
2016-05-08T03:50:21.943Z,0
2016-05-08T03:51:22.134Z,0
2016-05-08T03:52:22.011Z,0
2016-05-08T03:53:21.717Z,0
2016-05-08T03:54:21.892Z,0
2016-05-08T03:55:22.223Z,0
2016-05-08T03:56:22.084Z,0
2016-05-08T03:57:22.290Z,0
2016-05-08T03:58:22.137Z,0
2016-05-08T03:59:22.327Z,0
2016-05-08T04:00:22.361Z,0
2016-05-08T04:01:22.364Z,0
2016-05-08T04:02:22.382Z,0
2016-05-08T04:03:22.400Z,0
2016-05-08T04:04:22.450Z,0
2016-05-08T04:05:22.452Z,0
2016-05-08T04:06:22.471Z,0
2016-05-08T04:07:22.505Z,0
2016-05-08T04:08:22.539Z,0
2016-05-08T04:09:22.557Z,0
2016-05-08T04:10:22.419Z,0
2016-05-08T04:11:22.594Z,0
2016-05-08T04:12:22.472Z,0
2016-05-08T04:13:22.490Z,0
2016-05-08T04:14:22.664Z,0
2016-05-08T04:15:22.682Z,0
2016-05-08T04:16:22.419Z,0
2016-05-08T04:17:22.735Z,0
2016-05-08T04:18:22.754Z,0
2016-05-08T04:19:22.771Z,0
2016-05-08T04:20:22.805Z,0
2016-05-08T04:21:22.824Z,0
2016-05-08T04:22:22.858Z,0
2016-05-08T04:23:22.876Z,0
2016-05-08T04:24:22.894Z,0
2016-05-08T04:25:22.600Z,0
2016-05-08T04:26:22.931Z,0
2016-05-08T04:27:22.653Z,0
2016-05-08T04:28:22.984Z,0
2016-05-08T04:29:23.001Z,0
2016-05-08T04:30:23.050Z,0
2016-05-08T04:31:22.897Z,0
2016-05-08T04:32:23.088Z,0
2016-05-08T04:33:22.950Z,0
2016-05-08T04:34:22.811Z,0
2016-05-08T04:35:23.142Z,0
2016-05-08T04:36:23.160Z,0
2016-05-08T04:37:23.195Z,0
2016-05-08T04:38:23.213Z,0
2016-05-08T04:39:23.075Z,0
2016-05-08T04:40:23.108Z,0
2016-05-08T04:41:23.284Z,0
2016-05-08T04:42:23.005Z,0
2016-05-08T04:43:23.179Z,0
2016-05-08T04:44:23.369Z,0
2016-05-08T04:45:23.217Z,0
2016-05-08T04:46:23.406Z,0
2016-05-08T04:47:23.410Z,0
2016-05-08T04:48:23.443Z,0
2016-05-08T04:49:23.476Z,0
2016-05-08T04:50:23.495Z,0
2016-05-08T04:51:23.530Z,0
2016-05-08T04:52:23.548Z,0
2016-05-08T04:53:23.551Z,0
2016-05-08T04:54:23.615Z,0
2016-05-08T04:55:23.603Z,0
2016-05-08T04:56:23.464Z,0
2016-05-08T04:57:23.671Z,0
2016-05-08T04:58:23.532Z,0
2016-05-08T04:59:23.691Z,0
2016-05-08T05:00:23.553Z,0
2016-05-08T05:01:23.744Z,0
2016-05-08T05:02:23.606Z,0
2016-05-08T05:03:23.625Z,0
2016-05-08T05:04:23.658Z,0
2016-05-08T05:05:23.833Z,0
2016-05-08T05:06:23.710Z,0
2016-05-08T05:07:23.900Z,0
2016-05-08T05:08:23.903Z,0
2016-05-08T05:09:23.766Z,0
2016-05-08T05:10:23.971Z,5
2016-05-08T05:11:23.974Z,5
2016-05-08T05:12:23.836Z,5
2016-05-08T05:13:24.026Z,5
2016-05-08T05:14:24.044Z,5
2016-05-08T05:15:24.063Z,5
2016-05-08T05:16:24.080Z,5
2016-05-08T05:17:23.958Z,5
2016-05-08T05:18:24.133Z,5
2016-05-08T05:19:24.151Z,5
2016-05-08T05:20:24.185Z,5
2016-05-08T05:21:24.204Z,5
2016-05-08T05:22:24.082Z,5
2016-05-08T05:23:24.287Z,5
2016-05-08T05:24:24.290Z,5
2016-05-08T05:25:24.152Z,5
2016-05-08T05:26:24.312Z,5
2016-05-08T05:27:24.189Z,5
2016-05-08T05:28:24.363Z,5
2016-05-08T05:29:24.381Z,5
2016-05-08T05:30:24.243Z,5
2016-05-08T05:31:24.434Z,5
2016-05-08T05:32:24.296Z,5
2016-05-08T05:33:24.455Z,5
2016-05-08T05:34:24.489Z,5
2016-05-08T05:35:24.523Z,5
2016-05-08T05:36:24.401Z,5
2016-05-08T05:37:24.231Z,5
2016-05-08T05:38:24.421Z,5
2016-05-08T05:39:24.314Z,5
2016-05-08T05:40:24.489Z,5
2016-05-08T05:41:24.664Z,5
2016-05-08T05:42:24.526Z,5
2016-05-08T05:43:24.372Z,5
2016-05-08T05:44:24.562Z,5
2016-05-08T05:45:24.596Z,5
2016-05-08T05:46:24.616Z,5
2016-05-08T05:47:24.774Z,5
2016-05-08T05:48:24.824Z,5
2016-05-08T05:49:24.669Z,5
2016-05-08T05:50:24.719Z,5
2016-05-08T05:51:24.878Z,5
2016-05-08T05:52:24.741Z,5
2016-05-08T05:53:24.759Z,5
2016-05-08T05:54:24.637Z,5
2016-05-08T05:55:24.826Z,5
2016-05-08T05:56:24.985Z,5
2016-05-08T05:57:25.894Z,5
2016-05-08T05:58:24.897Z,5
2016-05-08T05:59:25.071Z,5
2016-05-08T06:00:25.090Z,5
2016-05-08T06:01:25.108Z,5
2016-05-08T06:02:25.142Z,5
2016-05-08T06:03:25.145Z,5
2016-05-08T06:04:25.179Z,5
2016-05-08T06:05:25.198Z,5
2016-05-08T06:06:25.215Z,5
2016-05-08T06:07:25.249Z,5
2016-05-08T06:08:25.267Z,5
2016-05-08T06:09:25.286Z,5
2016-05-08T06:10:25.304Z,5
2016-05-08T06:11:25.339Z,5
2016-05-08T06:12:24.903Z,5
2016-05-08T06:13:25.234Z,5
2016-05-08T06:14:25.097Z,5
2016-05-08T06:15:25.271Z,5
2016-05-08T06:16:25.289Z,5
2016-05-08T06:17:25.307Z,5
2016-05-08T06:18:25.497Z,5
2016-05-08T06:19:25.516Z,5
2016-05-08T06:20:25.238Z,5
2016-05-08T06:21:25.255Z,5
2016-05-08T06:22:25.430Z,5
2016-05-08T06:23:25.604Z,5
2016-05-08T06:24:25.310Z,5
2016-05-08T06:25:25.673Z,5
2016-05-08T06:26:25.675Z,5
2016-05-08T06:27:25.663Z,5
2016-05-08T06:28:25.790Z,5
2016-05-08T06:29:25.746Z,5
2016-05-08T06:30:25.608Z,5
2016-05-08T06:31:25.642Z,5
2016-05-08T06:32:25.817Z,5
2016-05-08T06:33:25.850Z,5
2016-05-08T06:34:25.869Z,5
2016-05-08T06:35:25.887Z,5
2016-05-08T06:36:25.921Z,5
2016-05-08T06:37:25.470Z,5
2016-05-08T06:38:25.801Z,5
2016-05-08T06:39:25.835Z,5
2016-05-08T06:40:26.010Z,5
2016-05-08T06:41:26.013Z,5
2016-05-08T06:42:25.734Z,5
2016-05-08T06:43:25.925Z,5
2016-05-08T06:44:26.083Z,5
2016-05-08T06:45:26.149Z,5
2016-05-08T06:46:25.980Z,5
2016-05-08T06:47:26.154Z,5
2016-05-08T06:48:26.188Z,5
2016-05-08T06:49:26.222Z,5
2016-05-08T06:50:26.068Z,5
2016-05-08T06:51:26.258Z,5
2016-05-08T06:52:26.121Z,5
2016-05-08T06:53:26.296Z,5
2016-05-08T06:54:26.173Z,5
2016-05-08T06:55:26.207Z,5
2016-05-08T06:56:26.381Z,5
2016-05-08T06:57:26.243Z,5
2016-05-08T06:58:26.261Z,5
2016-05-08T06:59:26.295Z,5
2016-05-08T07:00:26.329Z,5
2016-05-08T07:01:26.504Z,5
2016-05-08T07:02:26.507Z,5
2016-05-08T07:03:26.540Z,5
2016-05-08T07:04:26.575Z,5
2016-05-08T07:05:26.609Z,5
2016-05-08T07:06:26.611Z,5
2016-05-08T07:07:26.489Z,5
2016-05-08T07:08:26.663Z,5
2016-05-08T07:09:26.681Z,5
2016-05-08T07:10:26.544Z,5
2016-05-08T07:11:26.421Z,5
2016-05-08T07:12:26.767Z,5
2016-05-08T07:13:26.614Z,5
2016-05-08T07:14:26.508Z,5
2016-05-08T07:15:26.839Z,5
2016-05-08T07:16:26.544Z,5
2016-05-08T07:17:26.578Z,5
2016-05-08T07:18:26.752Z,5
2016-05-08T07:19:26.943Z,5
2016-05-08T07:20:26.789Z,5
2016-05-08T07:21:26.963Z,5
2016-05-08T07:22:26.842Z,5
2016-05-08T07:23:26.876Z,5
2016-05-08T07:24:27.035Z,5
2016-05-08T07:25:27.069Z,5
2016-05-08T07:26:27.087Z,5
2016-05-08T07:27:27.324Z,5
2016-05-08T07:28:26.999Z,5
2016-05-08T07:29:27.157Z,5
2016-05-08T07:30:26.878Z,5
2016-05-08T07:31:27.241Z,5
2016-05-08T07:32:27.087Z,5
2016-05-08T07:33:27.106Z,5
2016-05-08T07:34:27.296Z,5
2016-05-08T07:35:27.158Z,5
2016-05-08T07:36:27.020Z,5
2016-05-08T07:37:27.367Z,5
2016-05-08T07:38:27.229Z,5
2016-05-08T07:39:27.403Z,5
2016-05-08T07:40:27.452Z,5
2016-05-08T07:41:27.315Z,5
2016-05-08T07:42:28.817Z,5
2016-05-08T07:43:27.508Z,5
2016-05-08T07:44:27.369Z,5
2016-05-08T07:45:27.575Z,5
2016-05-08T07:46:27.578Z,5
2016-05-08T07:47:27.300Z,5
2016-05-08T07:48:27.630Z,5
2016-05-08T07:49:27.507Z,5
2016-05-08T07:50:27.526Z,5
2016-05-08T07:51:27.716Z,5
2016-05-08T07:52:27.579Z,5
2016-05-08T07:53:27.753Z,5
2016-05-08T07:54:27.787Z,5
2016-05-08T07:55:27.821Z,5
2016-05-08T07:56:27.840Z,5
2016-05-08T07:57:28.248Z,5
2016-05-08T07:58:27.735Z,5
2016-05-08T07:59:27.769Z,5
2016-05-08T08:00:27.787Z,5
2016-05-08T08:01:27.962Z,5
2016-05-08T08:02:27.840Z,5
2016-05-08T08:03:28.014Z,10
2016-05-08T08:04:28.032Z,10
2016-05-08T08:05:28.067Z,10
2016-05-08T08:06:27.945Z,10
2016-05-08T08:07:27.962Z,10
2016-05-08T08:08:28.137Z,10
2016-05-08T08:09:28.171Z,10
2016-05-08T08:10:28.205Z,10
2016-05-08T08:11:28.067Z,10
2016-05-08T08:12:28.601Z,10
2016-05-08T08:13:28.588Z,10
2016-05-08T08:14:28.309Z,10
2016-05-08T08:15:28.172Z,10
2016-05-08T08:16:28.347Z,10
2016-05-08T08:17:28.224Z,10
2016-05-08T08:18:28.414Z,10
2016-05-08T08:19:28.370Z,10
2016-05-08T08:20:28.310Z,10
2016-05-08T08:21:28.485Z,10
2016-05-08T08:22:28.503Z,10
2016-05-08T08:23:28.208Z,10
2016-05-08T08:24:28.399Z,10
2016-05-08T08:25:28.589Z,10
2016-05-08T08:26:28.607Z,10
2016-05-08T08:27:28.751Z,10
2016-05-08T08:28:28.660Z,10
2016-05-08T08:29:28.710Z,10
2016-05-08T08:30:28.587Z,10
2016-05-08T08:31:28.590Z,10
2016-05-08T08:32:28.608Z,10
2016-05-08T08:33:28.798Z,10
2016-05-08T08:34:28.832Z,10
2016-05-08T08:35:28.694Z,10
2016-05-08T08:36:28.728Z,10
2016-05-08T08:37:28.793Z,10
2016-05-08T08:38:28.937Z,10
2016-05-08T08:39:28.798Z,10
2016-05-08T08:40:29.004Z,10
2016-05-08T08:41:29.023Z,10
2016-05-08T08:42:28.776Z,10
2016-05-08T08:43:29.059Z,10
2016-05-08T08:44:29.077Z,10
2016-05-08T08:45:28.955Z,10
2016-05-08T08:46:28.989Z,10
2016-05-08T08:47:29.008Z,10
2016-05-08T08:48:29.197Z,10
2016-05-08T08:49:29.075Z,10
2016-05-08T08:50:29.094Z,10
2016-05-08T08:51:29.128Z,10
2016-05-08T08:52:29.411Z,15
2016-05-08T08:53:29.180Z,15
2016-05-08T08:54:29.213Z,15
2016-05-08T08:55:29.107Z,15
2016-05-08T08:56:29.126Z,15
2016-05-08T08:57:29.299Z,15
2016-05-08T08:58:31.538Z,15
2016-05-08T08:59:29.493Z,15
2016-05-08T09:00:29.605Z,15
2016-05-08T09:01:29.561Z,15
2016-05-08T09:02:29.595Z,15
2016-05-08T09:03:29.629Z,15
2016-05-08T09:04:29.647Z,15
2016-05-08T09:05:29.525Z,15
2016-05-08T09:06:29.699Z,15
2016-05-08T09:07:29.748Z,15
2016-05-08T09:08:29.627Z,15
2016-05-08T09:09:29.801Z,15
2016-05-08T09:10:29.803Z,15
2016-05-08T09:11:29.698Z,15
2016-05-08T09:12:30.278Z,15
2016-05-08T09:13:29.906Z,15
2016-05-08T09:14:29.924Z,15
2016-05-08T09:15:29.942Z,15
2016-05-08T09:16:29.976Z,15
2016-05-08T09:17:30.010Z,15
2016-05-08T09:18:30.044Z,15
2016-05-08T09:19:30.077Z,15
2016-05-08T09:20:30.112Z,15
2016-05-08T09:21:30.147Z,15
2016-05-08T09:22:30.149Z,15
2016-05-08T09:23:30.199Z,15
2016-05-08T09:24:30.216Z,15
2016-05-08T09:25:30.250Z,15
2016-05-08T09:26:30.269Z,15
2016-05-08T09:27:30.396Z,15
2016-05-08T09:28:30.321Z,15
2016-05-08T09:29:30.355Z,15
2016-05-08T09:30:30.389Z,15
2016-05-08T09:31:30.407Z,15
2016-05-08T09:32:30.285Z,15
2016-05-08T09:33:30.475Z,20
2016-05-08T09:34:30.338Z,20
2016-05-08T09:35:30.543Z,20
2016-05-08T09:36:30.545Z,20
2016-05-08T09:37:30.579Z,20
2016-05-08T09:38:31.957Z,20
2016-05-08T09:39:30.492Z,20
2016-05-08T09:40:30.681Z,20
2016-05-08T09:41:30.543Z,20
2016-05-08T09:42:30.734Z,20
2016-05-08T09:43:30.767Z,20
2016-05-08T09:44:30.630Z,20
2016-05-08T09:45:30.819Z,20
2016-05-08T09:46:30.853Z,20
2016-05-08T09:47:30.889Z,20
2016-05-08T09:48:30.906Z,20
2016-05-08T09:49:30.940Z,20
2016-05-08T09:50:30.974Z,20
2016-05-08T09:51:30.992Z,20
2016-05-08T09:52:31.027Z,20
2016-05-08T09:53:30.904Z,20
2016-05-08T09:54:31.078Z,20
2016-05-08T09:55:31.112Z,20
2016-05-08T09:56:31.147Z,20
2016-05-08T09:57:31.586Z,20
2016-05-08T09:58:31.277Z,20
2016-05-08T09:59:31.233Z,20
2016-05-08T10:00:31.188Z,20
2016-05-08T10:01:30.988Z,20
2016-05-08T10:02:31.318Z,20
2016-05-08T10:03:31.196Z,20
2016-05-08T10:04:31.387Z,20
2016-05-08T10:05:31.405Z,20
2016-05-08T10:06:31.282Z,25
2016-05-08T10:07:31.473Z,25
2016-05-08T10:08:31.632Z,25
2016-05-08T10:09:31.384Z,25
2016-05-08T10:10:31.403Z,25
2016-05-08T10:11:31.592Z,25
2016-05-08T10:12:31.611Z,25
2016-05-08T10:13:31.615Z,25
2016-05-08T10:14:31.772Z,25
2016-05-08T10:15:31.807Z,25
2016-05-08T10:16:31.684Z,25
2016-05-08T10:17:31.765Z,25
2016-05-08T10:18:31.909Z,25
2016-05-08T10:19:31.927Z,25
2016-05-08T10:20:31.961Z,25
2016-05-08T10:21:31.886Z,25
2016-05-08T10:22:31.919Z,25
2016-05-08T10:23:32.042Z,25
2016-05-08T10:24:31.842Z,25
2016-05-08T10:25:32.017Z,25
2016-05-08T10:26:32.144Z,10
2016-05-08T10:27:32.147Z,15
2016-05-08T10:28:32.696Z,30
2016-05-08T10:29:32.136Z,30
2016-05-08T10:30:32.171Z,25
2016-05-08T10:31:32.236Z,25
2016-05-08T10:32:32.238Z,30
2016-05-08T10:33:32.241Z,30
2016-05-08T10:34:43.260Z,30
2016-05-08T10:35:32.418Z,30
2016-05-08T10:36:32.343Z,30
2016-05-08T10:37:32.392Z,30
2016-05-08T10:38:32.426Z,30
2016-05-08T10:39:32.288Z,30
2016-05-08T10:40:32.478Z,30
2016-05-08T10:41:32.496Z,15
2016-05-08T10:42:32.218Z,35
2016-05-08T10:43:32.424Z,25
2016-05-08T10:44:32.551Z,35
2016-05-08T10:45:32.726Z,15
2016-05-08T10:46:32.667Z,15
2016-05-08T10:47:32.623Z,30
2016-05-08T10:48:32.406Z,30
2016-05-08T10:49:32.862Z,30
2016-05-08T10:50:32.803Z,30
2016-05-08T10:51:32.774Z,30
2016-05-08T10:52:32.792Z,30
2016-05-08T10:53:32.889Z,35
2016-05-08T10:54:32.750Z,45
2016-05-08T10:55:32.972Z,60
2016-05-08T10:56:33.037Z,30
2016-05-08T10:57:32.853Z,45
2016-05-08T10:58:33.027Z,40
2016-05-08T10:59:33.108Z,35
2016-05-08T11:00:32.955Z,45
2016-05-08T11:01:33.129Z,60
2016-05-08T11:02:33.194Z,70
2016-05-08T11:03:32.977Z,70
2016-05-08T11:04:33.324Z,70
2016-05-08T11:05:33.107Z,65
2016-05-08T11:06:33.298Z,45
2016-05-08T11:07:33.161Z,45
2016-05-08T11:08:33.351Z,65
2016-05-08T11:09:33.462Z,30
2016-05-08T11:10:33.418Z,45
2016-05-08T11:11:33.609Z,50
2016-05-08T11:12:33.487Z,50
2016-05-08T11:13:33.223Z,65
2016-05-08T11:14:33.445Z,65
2016-05-08T11:15:33.588Z,65
2016-05-08T11:16:33.482Z,65
2016-05-08T11:17:33.563Z,45
2016-05-08T11:18:33.753Z,40
2016-05-08T11:19:33.724Z,40
2016-05-08T11:20:33.789Z,25
2016-05-08T11:21:33.776Z,55
2016-05-08T11:22:33.888Z,45
2016-05-08T11:23:33.938Z,50
2016-05-08T11:24:33.956Z,20
2016-05-08T11:25:33.850Z,25
2016-05-08T11:26:33.867Z,40
2016-05-08T11:27:34.152Z,55
2016-05-08T11:28:35.248Z,40
2016-05-08T11:29:33.875Z,40
2016-05-08T11:30:34.066Z,50
2016-05-08T11:31:33.787Z,40
2016-05-08T11:32:34.150Z,40
2016-05-08T11:33:34.231Z,40
2016-05-08T11:34:34.218Z,40
2016-05-08T11:35:34.236Z,40
2016-05-08T11:36:34.269Z,40
2016-05-08T11:37:34.304Z,40
2016-05-08T11:38:34.275Z,40
2016-05-08T11:39:34.371Z,45
2016-05-08T11:40:34.249Z,40
2016-05-08T11:41:34.424Z,40
2016-05-08T11:42:34.301Z,40
2016-05-08T11:43:35.148Z,40
2016-05-08T11:44:34.651Z,40
2016-05-08T11:45:34.668Z,15
2016-05-08T11:46:34.687Z,40
2016-05-08T11:47:34.486Z,40
2016-05-08T11:48:34.444Z,40
2016-05-08T11:49:34.661Z,40
2016-05-08T11:50:34.939Z,40
2016-05-08T11:51:34.922Z,15
2016-05-08T11:52:34.997Z,40
2016-05-08T11:53:35.052Z,40
2016-05-08T11:54:35.195Z,45
2016-05-08T11:55:35.243Z,45
2016-05-08T11:56:35.277Z,45
2016-05-08T11:57:35.341Z,45
2016-05-08T11:58:35.211Z,45
2016-05-08T11:59:35.344Z,45
2016-05-08T12:00:35.399Z,45
2016-05-08T12:01:35.423Z,25
2016-05-08T12:02:35.321Z,20
2016-05-08T12:03:35.484Z,20
2016-05-08T12:04:35.503Z,45
2016-05-08T12:05:35.383Z,45
2016-05-08T12:06:35.528Z,45
2016-05-08T12:07:35.814Z,45
2016-05-08T12:08:35.739Z,45
2016-05-08T12:09:35.524Z,45
2016-05-08T12:10:35.825Z,45
2016-05-08T12:11:35.859Z,45
2016-05-08T12:12:35.738Z,55
2016-05-08T12:13:36.287Z,65
2016-05-08T12:14:35.867Z,55
2016-05-08T12:15:35.528Z,50
2016-05-08T12:16:35.780Z,45
2016-05-08T12:17:35.845Z,45
2016-05-08T12:18:36.097Z,45
2016-05-08T12:19:35.976Z,45
2016-05-08T12:20:35.917Z,45
2016-05-08T12:21:36.137Z,45
2016-05-08T12:22:35.968Z,45
2016-05-08T12:23:36.095Z,45
2016-05-08T12:24:36.286Z,45
2016-05-08T12:25:36.241Z,45
2016-05-08T12:26:36.275Z,45
2016-05-08T12:27:36.153Z,50
2016-05-08T12:28:36.250Z,25
2016-05-08T12:29:36.315Z,25
2016-05-08T12:30:36.411Z,25
2016-05-08T12:31:36.289Z,55
2016-05-08T12:32:36.573Z,60
2016-05-08T12:33:36.513Z,50
2016-05-08T12:34:36.453Z,20
2016-05-08T12:35:36.566Z,50
2016-05-08T12:36:36.569Z,55
2016-05-08T12:37:36.758Z,65
2016-05-08T12:38:36.527Z,55
2016-05-08T12:39:36.748Z,55
2016-05-08T12:40:36.845Z,70
2016-05-08T12:41:36.801Z,45
2016-05-08T12:42:36.740Z,60
2016-05-08T12:43:37.321Z,70
2016-05-08T12:44:36.840Z,60
2016-05-08T12:45:37.014Z,65
2016-05-08T12:46:36.642Z,65
2016-05-08T12:47:37.082Z,35
2016-05-08T12:48:37.131Z,45
2016-05-08T12:49:37.072Z,80
2016-05-08T12:50:37.089Z,55
2016-05-08T12:51:37.233Z,45
2016-05-08T12:52:37.299Z,45
2016-05-08T12:53:37.255Z,45
2016-05-08T12:54:37.133Z,50
2016-05-08T12:55:37.291Z,55
2016-05-08T12:56:37.403Z,55
2016-05-08T12:57:37.343Z,60
2016-05-08T12:58:37.002Z,35
2016-05-08T12:59:37.255Z,35
2016-05-08T13:00:37.445Z,45
2016-05-08T13:01:37.480Z,40
2016-05-08T13:02:37.513Z,60
2016-05-08T13:03:37.547Z,50
2016-05-08T13:04:37.580Z,50
2016-05-08T13:05:37.630Z,50
2016-05-08T13:06:37.665Z,50
2016-05-08T13:07:37.776Z,50
2016-05-08T13:08:37.795Z,60
2016-05-08T13:09:37.923Z,65
2016-05-08T13:10:37.785Z,55
2016-05-08T13:11:37.959Z,30
2016-05-08T13:12:37.820Z,55
2016-05-08T13:13:38.027Z,45
2016-05-08T13:14:37.889Z,50
2016-05-08T13:15:37.970Z,50
2016-05-08T13:16:37.878Z,50
2016-05-08T13:17:37.898Z,45
2016-05-08T13:18:38.150Z,50
2016-05-08T13:19:38.121Z,50
2016-05-08T13:20:37.998Z,50
2016-05-08T13:21:38.001Z,50
2016-05-08T13:22:38.208Z,50
2016-05-08T13:23:38.319Z,50
2016-05-08T13:24:38.119Z,50
2016-05-08T13:25:38.153Z,50
2016-05-08T13:26:38.311Z,50
2016-05-08T13:27:38.236Z,50
2016-05-08T13:28:38.270Z,55
2016-05-08T13:29:38.289Z,50
2016-05-08T13:30:38.494Z,50
2016-05-08T13:31:38.200Z,50
2016-05-08T13:32:38.250Z,55
2016-05-08T13:33:38.596Z,60
2016-05-08T13:34:38.724Z,55
2016-05-08T13:35:38.680Z,50
2016-05-08T13:36:38.635Z,40
2016-05-08T13:37:38.607Z,50
2016-05-08T13:38:38.922Z,25
2016-05-08T13:39:38.800Z,30
2016-05-08T13:40:38.521Z,60
2016-05-08T13:41:38.946Z,35
2016-05-08T13:42:38.902Z,35
2016-05-08T13:43:39.326Z,50
2016-05-08T13:44:38.751Z,50
2016-05-08T13:45:39.020Z,50
2016-05-08T13:46:39.037Z,50
2016-05-08T13:47:39.025Z,50
2016-05-08T13:48:39.198Z,50
2016-05-08T13:49:39.139Z,50
2016-05-08T13:50:39.112Z,50
2016-05-08T13:51:39.113Z,50
2016-05-08T13:52:39.289Z,50
2016-05-08T13:53:39.134Z,50
2016-05-08T13:54:39.434Z,55
2016-05-08T13:55:39.453Z,55
2016-05-08T13:56:39.330Z,65
2016-05-08T13:57:39.333Z,65
2016-05-08T13:58:39.586Z,25
2016-05-08T13:59:39.447Z,35
2016-05-08T14:00:39.388Z,55
2016-05-08T14:01:39.656Z,50
2016-05-08T14:02:39.597Z,40
2016-05-08T14:03:39.474Z,65
2016-05-08T14:04:39.649Z,65
2016-05-08T14:05:39.729Z,60
2016-05-08T14:06:39.732Z,55
2016-05-08T14:07:39.703Z,55
2016-05-08T14:08:39.815Z,55
2016-05-08T14:09:39.943Z,65
2016-05-08T14:10:39.993Z,65
2016-05-08T14:11:39.761Z,65
2016-05-08T14:12:40.076Z,65
2016-05-08T14:13:39.907Z,25
2016-05-08T14:14:39.956Z,30
2016-05-08T14:15:39.896Z,60
2016-05-08T14:16:40.103Z,60
2016-05-08T14:17:40.215Z,60
2016-05-08T14:18:40.170Z,65
2016-05-08T14:19:40.298Z,65
2016-05-08T14:20:40.301Z,75
2016-05-08T14:21:40.319Z,65
2016-05-08T14:22:40.463Z,50
2016-05-08T14:23:40.325Z,60
2016-05-08T14:24:40.374Z,70
2016-05-08T14:25:40.517Z,75
2016-05-08T14:26:40.442Z,70
2016-05-08T14:27:40.492Z,40
2016-05-08T14:28:40.760Z,40
2016-05-08T14:29:40.638Z,50
2016-05-08T14:30:40.624Z,45
2016-05-08T14:31:40.768Z,65
2016-05-08T14:32:40.739Z,40